Oriental Clematis — 9VJT5 — position and weather

sailwx.info

Track history (hours):
 
Tides and Currents Weather Stations Pressure Air Temp Water Temp Dewpoint Dewpoint Depression Visibility Wind Speed Wind Dir Waves Ship Positions

Oriental Clematis

Last reported at 2016-Jun-27 14:11 UTC. Time now 2016-Jun-30 21:24 UTC.
Position N 34°11' E 139°20'.

Length 134 m; draft 5.2 m.

Type: Ship. MMSI: 565157000.

Date/timePositionNaut miles runAvg speedWind from/ knotsBaromVisibWave heightAir tempDewpointWater temp
2016-Jun-27 14:11N 34°11' E 139°20'2113.1
2016-Jun-27 12:32N 34°31' E 139°28'1212.7
2016-Jun-27 11:33N 34°43' E 139°33'1712.9
2016-Jun-27 10:16N 34°59' E 139°39'912.9
2016-Jun-27 09:33N 35°07' E 139°43'1212.2
2016-Jun-27 08:33N 35°19' E 139°43'1211.7
2016-Jun-27 07:33N 35°29' E 139°51'1212.3
2016-Jun-27 06:33N 35°35' E 140°04'2 1.7
2016-Jun-27 05:33N 35°36' E 140°05'0 0.0
2016-Jun-27 04:20N 35°36' E 140°05'0 0.0
2016-Jun-27 03:20N 35°36' E 140°05'0 0.0
2016-Jun-27 02:32N 35°36' E 140°05'0 0.0
2016-Jun-27 01:14N 35°36' E 140°05'0 0.0
2016-Jun-27 00:14N 35°36' E 140°05'0 0.0
2016-Jun-26 23:26N 35°36' E 140°05'1 0.7
2016-Jun-26 22:33N 35°36' E 140°05'3 3.3
2016-Jun-26 21:31N 35°35' E 140°01'0 0.0
2016-Jun-26 20:31N 35°35' E 140°01'0 0.0
2016-Jun-26 19:31N 35°35' E 140°01'0 0.0
2016-Jun-26 18:31N 35°35' E 140°01'0 0.0
2016-Jun-26 17:28N 35°35' E 140°01'0 0.1
2016-Jun-26 16:31N 35°35' E 140°01'0 0.1
2016-Jun-26 15:31N 35°35' E 140°02'0 0.1
2016-Jun-26 14:31N 35°35' E 140°02'0 0.0
2016-Jun-26 13:31N 35°35' E 140°02'0 0.1
2016-Jun-26 12:31N 35°35' E 140°02'0 0.0
2016-Jun-26 11:31N 35°35' E 140°02'0 0.0
2016-Jun-26 10:13N 35°35' E 140°02'0 0.0
2016-Jun-26 09:25N 35°35' E 140°02'0 0.1
2016-Jun-26 08:31N 35°35' E 140°02'0 0.0
2016-Jun-26 07:33N 35°35' E 140°02'3 3.4
2016-Jun-26 06:33N 35°36' E 140°05'0 0.2
2016-Jun-26 05:27N 35°36' E 140°06'0 0.0
2016-Jun-26 04:21N 35°36' E 140°06'0 0.0
2016-Jun-26 03:33N 35°36' E 140°06'0 0.0
2016-Jun-26 02:33N 35°36' E 140°06'0 0.0
2016-Jun-26 01:33N 35°36' E 140°06'0 0.0
2016-Jun-26 00:33N 35°36' E 140°06'0 0.0
2016-Jun-25 23:33N 35°36' E 140°06'0 0.1
2016-Jun-25 22:33N 35°36' E 140°05'4 4.1
2016-Jun-25 21:33N 35°35' E 140°01'0 0.0
2016-Jun-25 20:33N 35°35' E 140°01'0 0.0
2016-Jun-25 19:33N 35°35' E 140°01'0 0.0
2016-Jun-25 18:33N 35°35' E 140°01'0 0.1
2016-Jun-25 17:33N 35°35' E 140°01'8 7.5
2016-Jun-25 16:34N 35°30' E 139°54'1312.6
2016-Jun-25 15:33N 35°20' E 139°44'1212.2
2016-Jun-25 14:33N 35°08' E 139°47'1313.3
2016-Jun-25 13:33N 34°56' E 139°39'1313.0
2016-Jun-25 12:32N 34°44' E 139°33'1712.4
2016-Jun-25 11:09N 34°34' E 139°15'813.3
2016-Jun-25 10:33N 34°31' E 139°07'20711.3
2016-Jun-24 16:17N 34°01' E 134°59'911.8
2016-Jun-24 15:34N 34°10' E 134°58'1010.0
2016-Jun-24 14:31N 34°20' E 134°59'1010.0
2016-Jun-24 13:31N 34°27' E 135°08'9 9.6
2016-Jun-24 12:33N 34°27' E 135°19'1 0.8
2016-Jun-24 11:29N 34°26' E 135°19'0 0.0
2016-Jun-24 10:29N 34°26' E 135°19'0 0.0
2016-Jun-24 09:29N 34°26' E 135°19'0 0.0
2016-Jun-24 08:29N 34°26' E 135°19'0 0.0
2016-Jun-24 07:29N 34°26' E 135°19'0 0.0
2016-Jun-24 04:29N 34°26' E 135°19'0 0.0
2016-Jun-24 03:29N 34°26' E 135°19'0 0.0
2016-Jun-24 02:17N 34°26' E 135°19'0 0.0
2016-Jun-24 00:11N 34°26' E 135°19'0 0.0
2016-Jun-23 23:34N 34°26' E 135°19'2 2.1
2016-Jun-23 22:33N 34°28' E 135°19'9 8.5
2016-Jun-23 21:33N 34°26' E 135°09'1211.9
2016-Jun-23 20:32N 34°16' E 134°59'1212.3
2016-Jun-23 19:33N 34°04' E 134°59'  
Track history (hours):
 
Tides and Currents Weather Stations Pressure Air Temp Water Temp Dewpoint Dewpoint Depression Visibility Wind Speed Wind Dir Waves Ship Positions

Oriental Clematis

Last reported at 2016-Jun-27 14:11 UTC. Time now 2016-Jun-30 21:24 UTC.
Position N 34°11' E 139°20'.

Length 134 m; draft 5.2 m.

Type: Ship. MMSI: 565157000.

Date/timePositionNaut miles runAvg speedWind from/ knotsBaromVisibWave heightAir tempDewpointWater temp
2016-Jun-27 14:11N 34°11' E 139°20'2113.1
2016-Jun-27 12:32N 34°31' E 139°28'1212.7
2016-Jun-27 11:33N 34°43' E 139°33'1712.9
2016-Jun-27 10:16N 34°59' E 139°39'912.9
2016-Jun-27 09:33N 35°07' E 139°43'1212.2
2016-Jun-27 08:33N 35°19' E 139°43'1211.7
2016-Jun-27 07:33N 35°29' E 139°51'1212.3
2016-Jun-27 06:33N 35°35' E 140°04'2 1.7
2016-Jun-27 05:33N 35°36' E 140°05'0 0.0
2016-Jun-27 04:20N 35°36' E 140°05'0 0.0
2016-Jun-27 03:20N 35°36' E 140°05'0 0.0
2016-Jun-27 02:32N 35°36' E 140°05'0 0.0
2016-Jun-27 01:14N 35°36' E 140°05'0 0.0
2016-Jun-27 00:14N 35°36' E 140°05'0 0.0
2016-Jun-26 23:26N 35°36' E 140°05'1 0.7
2016-Jun-26 22:33N 35°36' E 140°05'3 3.3
2016-Jun-26 21:31N 35°35' E 140°01'0 0.0
2016-Jun-26 20:31N 35°35' E 140°01'0 0.0
2016-Jun-26 19:31N 35°35' E 140°01'0 0.0
2016-Jun-26 18:31N 35°35' E 140°01'0 0.0
2016-Jun-26 17:28N 35°35' E 140°01'0 0.1
2016-Jun-26 16:31N 35°35' E 140°01'0 0.1
2016-Jun-26 15:31N 35°35' E 140°02'0 0.1
2016-Jun-26 14:31N 35°35' E 140°02'0 0.0
2016-Jun-26 13:31N 35°35' E 140°02'0 0.1
2016-Jun-26 12:31N 35°35' E 140°02'0 0.0
2016-Jun-26 11:31N 35°35' E 140°02'0 0.0
2016-Jun-26 10:13N 35°35' E 140°02'0 0.0
2016-Jun-26 09:25N 35°35' E 140°02'0 0.1
2016-Jun-26 08:31N 35°35' E 140°02'0 0.0
2016-Jun-26 07:33N 35°35' E 140°02'3 3.4
2016-Jun-26 06:33N 35°36' E 140°05'0 0.2
2016-Jun-26 05:27N 35°36' E 140°06'0 0.0
2016-Jun-26 04:21N 35°36' E 140°06'0 0.0
2016-Jun-26 03:33N 35°36' E 140°06'0 0.0
2016-Jun-26 02:33N 35°36' E 140°06'0 0.0
2016-Jun-26 01:33N 35°36' E 140°06'0 0.0
2016-Jun-26 00:33N 35°36' E 140°06'0 0.0
2016-Jun-25 23:33N 35°36' E 140°06'0 0.1
2016-Jun-25 22:33N 35°36' E 140°05'4 4.1
2016-Jun-25 21:33N 35°35' E 140°01'0 0.0
2016-Jun-25 20:33N 35°35' E 140°01'0 0.0
2016-Jun-25 19:33N 35°35' E 140°01'0 0.0
2016-Jun-25 18:33N 35°35' E 140°01'0 0.1
2016-Jun-25 17:33N 35°35' E 140°01'8 7.5
2016-Jun-25 16:34N 35°30' E 139°54'1312.6
2016-Jun-25 15:33N 35°20' E 139°44'1212.2
2016-Jun-25 14:33N 35°08' E 139°47'1313.3
2016-Jun-25 13:33N 34°56' E 139°39'1313.0
2016-Jun-25 12:32N 34°44' E 139°33'1712.4
2016-Jun-25 11:09N 34°34' E 139°15'813.3
2016-Jun-25 10:33N 34°31' E 139°07'20711.3
2016-Jun-24 16:17N 34°01' E 134°59'911.8
2016-Jun-24 15:34N 34°10' E 134°58'1010.0
2016-Jun-24 14:31N 34°20' E 134°59'1010.0
2016-Jun-24 13:31N 34°27' E 135°08'9 9.6
2016-Jun-24 12:33N 34°27' E 135°19'1 0.8
2016-Jun-24 11:29N 34°26' E 135°19'0 0.0
2016-Jun-24 10:29N 34°26' E 135°19'0 0.0
2016-Jun-24 09:29N 34°26' E 135°19'0 0.0
2016-Jun-24 08:29N 34°26' E 135°19'0 0.0
2016-Jun-24 07:29N 34°26' E 135°19'0 0.0
2016-Jun-24 04:29N 34°26' E 135°19'0 0.0
2016-Jun-24 03:29N 34°26' E 135°19'0 0.0
2016-Jun-24 02:17N 34°26' E 135°19'0 0.0
2016-Jun-24 00:11N 34°26' E 135°19'0 0.0
2016-Jun-23 23:34N 34°26' E 135°19'2 2.1
2016-Jun-23 22:33N 34°28' E 135°19'9 8.5
2016-Jun-23 21:33N 34°26' E 135°09'1211.9
2016-Jun-23 20:32N 34°16' E 134°59'1212.3
2016-Jun-23 19:33N 34°04' E 134°59'  

Dump ship's entire track history